createdAt,value
2022-12-09T00:03:13.273Z,96.74
2022-12-09T00:08:14.972Z,96.95
2022-12-09T00:13:17.499Z,96.84
2022-12-09T00:18:19.521Z,96.77
2022-12-09T00:23:21.092Z,96.63
2022-12-09T00:28:22.845Z,96.66
2022-12-09T00:33:24.378Z,96.61
2022-12-09T00:38:26.057Z,96.43
2022-12-09T00:43:28.050Z,96.17
2022-12-09T00:48:29.951Z,96.27
2022-12-09T00:53:32.143Z,96.10
2022-12-09T00:58:34.679Z,96.05
2022-12-09T01:03:36.450Z,96.31
2022-12-09T01:08:39.532Z,96.09
2022-12-09T01:13:42.006Z,96.39
2022-12-09T01:18:44.186Z,96.36
2022-12-09T01:23:45.987Z,96.39
2022-12-09T01:28:52.456Z,96.10
2022-12-09T01:33:56.070Z,96.16
2022-12-09T01:39:00.044Z,96.32
2022-12-09T01:44:17.576Z,96.21
2022-12-09T01:49:42.498Z,96.33
2022-12-09T01:54:48.477Z,96.62
2022-12-09T01:59:50.498Z,96.35
2022-12-09T02:04:52.401Z,96.29
2022-12-09T02:09:54.306Z,96.91
2022-12-09T02:15:24.250Z,96.71
2022-12-09T02:20:44.738Z,96.80
2022-12-09T02:25:56.224Z,96.50
2022-12-09T02:31:27.523Z,96.85
2022-12-09T02:36:40.509Z,97.16
2022-12-09T02:41:46.923Z,96.90
2022-12-09T02:46:49.875Z,97.20
2022-12-09T02:51:52.313Z,96.93
2022-12-09T02:57:00.198Z,97.10
2022-12-09T03:02:22.743Z,96.83
2022-12-09T03:07:47.852Z,96.91
2022-12-09T03:12:59.816Z,96.97
2022-12-09T03:18:07.804Z,96.71
2022-12-09T03:23:13.856Z,97.02
2022-12-09T03:28:24.404Z,96.66
2022-12-09T03:33:28.082Z,96.64
2022-12-09T03:38:35.805Z,96.85
2022-12-09T03:43:41.235Z,97.03
2022-12-09T03:48:42.818Z,97.02
2022-12-09T03:53:58.776Z,96.81
2022-12-09T03:59:04.169Z,96.65
2022-12-09T04:04:06.169Z,96.93
2022-12-09T04:09:08.362Z,97.01
2022-12-09T04:14:15.368Z,96.60
2022-12-09T04:19:17.591Z,96.83
2022-12-09T04:24:19.117Z,96.51
2022-12-09T04:29:20.653Z,96.98
2022-12-09T04:34:22.149Z,96.31
2022-12-09T04:39:24.607Z,96.63
2022-12-09T04:44:26.113Z,96.41
2022-12-09T04:49:27.637Z,96.59
2022-12-09T04:54:29.503Z,96.50
2022-12-09T04:59:32.389Z,96.50
2022-12-09T05:04:34.504Z,96.45
2022-12-09T05:09:36.498Z,96.65
2022-12-09T05:14:38.462Z,96.89
2022-12-09T05:19:40.506Z,96.61
2022-12-09T05:24:43.945Z,96.29
2022-12-09T05:29:46.976Z,96.31
2022-12-09T05:34:48.611Z,96.44
2022-12-09T05:39:50.326Z,96.58
2022-12-09T05:44:52.008Z,96.59
2022-12-09T05:49:54.077Z,95.95
2022-12-09T05:54:56.017Z,96.45
2022-12-09T05:59:57.928Z,96.67
2022-12-09T06:04:59.561Z,96.56
2022-12-09T06:10:02.242Z,96.42
2022-12-09T06:15:05.024Z,96.79
2022-12-09T06:20:09.795Z,96.62
2022-12-09T06:25:12.060Z,96.86
2022-12-09T06:30:14.336Z,96.64
2022-12-09T06:35:16.936Z,96.52
2022-12-09T06:40:18.774Z,96.59
2022-12-09T06:45:20.684Z,96.66
2022-12-09T06:50:22.364Z,96.61
2022-12-09T06:55:24.043Z,96.51
2022-12-09T07:00:26.778Z,96.72
2022-12-09T07:05:28.913Z,96.93
2022-12-09T07:10:30.849Z,96.88
2022-12-09T07:15:32.771Z,96.63
2022-12-09T07:20:35.037Z,96.71
2022-12-09T07:25:36.693Z,96.79
2022-12-09T07:30:38.528Z,96.74
2022-12-09T07:35:40.271Z,96.73
2022-12-09T07:40:43.022Z,97.06
2022-12-09T07:45:44.952Z,96.68
2022-12-09T07:50:46.691Z,96.87
2022-12-09T07:55:48.490Z,97.08
2022-12-09T08:00:50.234Z,96.67
2022-12-09T08:05:53.637Z,96.90
2022-12-09T08:10:55.554Z,97.01
2022-12-09T08:16:02.592Z,97.42
2022-12-09T08:21:06.973Z,100.00
2022-12-09T08:26:10.615Z,100.00
2022-12-09T08:31:16.724Z,97.42
2022-12-09T08:36:24.829Z,97.45
2022-12-09T08:41:35.786Z,97.67
2022-12-09T08:46:39.949Z,98.02
2022-12-09T08:51:42.030Z,97.67
2022-12-09T08:56:49.303Z,97.95
2022-12-09T09:01:51.608Z,98.06
2022-12-09T09:06:54.153Z,98.07
2022-12-09T09:11:56.625Z,97.91
2022-12-09T09:16:58.448Z,98.01
2022-12-09T09:22:01.288Z,98.31
2022-12-09T09:27:03.469Z,98.41
2022-12-09T09:32:05.933Z,98.18
2022-12-09T09:37:08.228Z,98.67
2022-12-09T09:42:23.508Z,98.66
2022-12-09T09:47:51.106Z,98.65
2022-12-09T09:52:55.198Z,98.91
2022-12-09T09:58:17.975Z,98.60
2022-12-09T10:03:31.533Z,98.71
2022-12-09T10:09:31.067Z,99.07
2022-12-09T10:15:04.387Z,98.73
2022-12-09T10:20:25.742Z,98.96
2022-12-09T10:25:31.920Z,99.02
2022-12-09T10:30:39.837Z,99.09
2022-12-09T10:35:46.711Z,98.86
2022-12-09T10:40:57.130Z,99.18
2022-12-09T10:51:28.122Z,98.95
2022-12-09T10:56:31.507Z,98.81
2022-12-09T11:01:51.791Z,99.23
2022-12-09T11:06:59.707Z,98.99
2022-12-09T11:12:04.811Z,98.91
2022-12-09T11:17:21.710Z,99.07
2022-12-09T11:22:28.398Z,99.48
2022-12-09T11:27:33.906Z,99.10
2022-12-09T11:32:51.997Z,99.38
2022-12-09T11:37:53.747Z,99.34
2022-12-09T11:42:56.931Z,99.36
2022-12-09T11:53:45.826Z,99.36
2022-12-09T11:59:09.211Z,99.01
2022-12-09T12:04:14.730Z,99.02
2022-12-09T12:09:28.406Z,99.34
2022-12-09T12:14:30.275Z,99.48
2022-12-09T12:19:35.236Z,99.27
2022-12-09T12:25:02.882Z,99.19
2022-12-09T12:30:04.825Z,99.58
2022-12-09T12:35:24.715Z,99.28
2022-12-09T12:40:29.236Z,99.26
2022-12-09T12:46:01.069Z,99.49
2022-12-09T12:51:25.392Z,99.66
2022-12-09T12:56:40.198Z,99.57
2022-12-09T13:01:44.310Z,99.52
2022-12-09T13:06:54.920Z,99.44
2022-12-09T13:12:05.468Z,99.40
2022-12-09T13:17:13.680Z,99.54
2022-12-09T13:22:52.291Z,99.37
2022-12-09T13:28:19.320Z,99.64
2022-12-09T13:33:51.933Z,99.21
2022-12-09T13:38:53.620Z,99.34
2022-12-09T13:44:07.259Z,99.69
2022-12-09T13:49:20.036Z,99.63
2022-12-09T13:54:29.368Z,98.99
2022-12-09T13:59:42.992Z,99.30
2022-12-09T14:05:15.790Z,99.36
2022-12-09T14:10:46.275Z,99.19
2022-12-09T14:16:08.073Z,99.05
2022-12-09T14:21:18.614Z,98.84
2022-12-09T14:26:39.930Z,98.97
2022-12-09T14:32:00.678Z,98.75
2022-12-09T14:37:08.698Z,98.77
2022-12-09T14:42:22.257Z,98.73
2022-12-09T14:47:30.785Z,98.74
2022-12-09T14:52:33.919Z,98.55
2022-12-09T14:57:43.631Z,98.39
2022-12-09T15:03:23.129Z,98.61
2022-12-09T15:08:45.152Z,98.44
2022-12-09T15:13:52.365Z,98.65
2022-12-09T15:18:54.672Z,98.53
2022-12-09T15:23:57.898Z,98.29
2022-12-09T15:29:00.892Z,98.42
2022-12-09T15:34:14.815Z,98.29
2022-12-09T15:39:25.556Z,97.91
2022-12-09T15:44:31.783Z,98.16
2022-12-09T15:49:39.716Z,98.28
2022-12-09T15:54:44.042Z,98.17
2022-12-09T15:59:55.705Z,98.12
2022-12-09T16:05:01.626Z,98.00
2022-12-09T16:10:09.806Z,97.73
2022-12-09T16:15:14.254Z,97.97
2022-12-09T16:20:31.580Z,97.70
2022-12-09T16:25:42.585Z,97.81
2022-12-09T16:30:46.147Z,97.92
2022-12-09T16:36:19.544Z,97.38
2022-12-09T16:41:53.061Z,97.52
2022-12-09T16:47:09.575Z,97.38
2022-12-09T16:52:13.858Z,97.29
2022-12-09T16:57:19.459Z,97.36
2022-12-09T17:02:29.235Z,97.12
2022-12-09T17:07:30.756Z,97.40
2022-12-09T17:12:32.608Z,96.96
2022-12-09T17:17:34.188Z,97.13
2022-12-09T17:22:36.356Z,97.12
2022-12-09T17:27:37.951Z,97.02
2022-12-09T17:32:39.842Z,97.23
2022-12-09T17:37:42.377Z,96.69
2022-12-09T17:42:44.448Z,97.14
2022-12-09T17:47:48.483Z,97.01
2022-12-09T17:52:50.248Z,97.05
2022-12-09T17:57:54.267Z,96.82
2022-12-09T18:02:56.037Z,96.98
2022-12-09T18:07:57.676Z,97.21
2022-12-09T18:12:59.224Z,96.75
2022-12-09T18:18:00.760Z,97.23
2022-12-09T18:23:02.260Z,96.90
2022-12-09T18:28:03.866Z,97.02
2022-12-09T18:33:05.414Z,96.86
2022-12-09T18:38:12.520Z,97.07
2022-12-09T18:43:14.468Z,96.92
2022-12-09T18:48:15.969Z,96.70
2022-12-09T18:53:17.575Z,96.64
2022-12-09T18:58:36.574Z,96.72
2022-12-09T19:03:40.710Z,96.67
2022-12-09T19:08:42.188Z,96.83
2022-12-09T19:13:43.688Z,96.58
2022-12-09T19:18:45.754Z,96.82
2022-12-09T19:23:47.708Z,96.84
2022-12-09T19:28:55.720Z,96.72
2022-12-09T19:33:59.899Z,97.21
2022-12-09T19:39:02.828Z,96.80
2022-12-09T19:44:05.232Z,96.47
2022-12-09T19:49:15.213Z,96.82
2022-12-09T19:54:17.522Z,96.49
2022-12-09T19:59:19.102Z,96.92
2022-12-09T20:04:48.211Z,96.70
2022-12-09T20:09:44.761Z,96.63
2022-12-09T20:14:46.340Z,96.42
2022-12-09T20:19:47.902Z,96.72
2022-12-09T20:24:49.441Z,96.85
2022-12-09T20:29:50.921Z,96.59
2022-12-09T20:34:53.595Z,96.67
2022-12-09T20:39:55.242Z,96.83
2022-12-09T20:44:57.439Z,96.68
2022-12-09T20:49:58.950Z,96.63
2022-12-09T20:55:00.611Z,96.81
2022-12-09T21:00:02.157Z,96.45
2022-12-09T21:05:03.776Z,96.80
2022-12-09T21:10:06.032Z,96.67
2022-12-09T21:15:08.116Z,96.65
2022-12-09T21:20:10.467Z,96.93
2022-12-09T21:25:12.094Z,96.67
2022-12-09T21:30:13.580Z,96.30
2022-12-09T21:35:15.140Z,96.55
2022-12-09T21:40:23.544Z,96.57
2022-12-09T21:45:26.072Z,96.07
2022-12-09T21:50:27.772Z,95.98
2022-12-09T21:55:29.644Z,96.38
2022-12-09T22:00:32.430Z,96.00
2022-12-09T22:05:35.062Z,95.98
2022-12-09T22:10:37.694Z,96.22
2022-12-09T22:15:39.244Z,96.07
2022-12-09T22:26:07.769Z,96.08
2022-12-09T22:31:11.163Z,95.95
2022-12-09T22:36:14.321Z,96.18
2022-12-09T22:41:18.793Z,96.04
2022-12-09T22:46:24.971Z,96.14
2022-12-09T22:51:30.097Z,96.06
2022-12-09T22:56:32.707Z,95.98
2022-12-09T23:01:37.114Z,96.22
2022-12-09T23:06:39.612Z,96.43
2022-12-09T23:11:41.517Z,96.37
2022-12-09T23:16:44.644Z,96.56
2022-12-09T23:21:46.257Z,96.57
2022-12-09T23:26:47.819Z,96.15
2022-12-09T23:31:49.690Z,96.54
2022-12-09T23:36:51.497Z,96.54
2022-12-09T23:41:53.021Z,96.58
2022-12-09T23:46:54.865Z,97.11
2022-12-09T23:51:56.361Z,97.00
2022-12-09T23:56:58.000Z,97.03
